sensor_id;sensor_type;location;lat;lon;timestamp;pressure;altitude;pressure_sealevel;temperature;humidity
73106;BME280;61559;50.476;15.588;2023-04-27T00:00:23;97805.91;;;-0.04;73.74
73106;BME280;61559;50.476;15.588;2023-04-27T00:03:14;97804.21;;;-0.12;73.95
73106;BME280;61559;50.476;15.588;2023-04-27T00:05:46;97807.72;;;-0.17;74.08
73106;BME280;61559;50.476;15.588;2023-04-27T00:08:17;97804.67;;;-0.21;74.12
73106;BME280;61559;50.476;15.588;2023-04-27T00:10:49;97802.44;;;-0.24;74.24
73106;BME280;61559;50.476;15.588;2023-04-27T00:13:19;97802.25;;;-0.26;74.23
73106;BME280;61559;50.476;15.588;2023-04-27T00:15:51;97802.97;;;-0.29;74.26
73106;BME280;61559;50.476;15.588;2023-04-27T00:18:22;97801.77;;;-0.31;74.42
73106;BME280;61559;50.476;15.588;2023-04-27T00:20:53;97799.96;;;-0.34;74.61
73106;BME280;61559;50.476;15.588;2023-04-27T00:23:24;97798.36;;;-0.36;74.54
73106;BME280;61559;50.476;15.588;2023-04-27T00:25:56;97797.36;;;-0.38;74.76
73106;BME280;61559;50.476;15.588;2023-04-27T00:28:27;97798.16;;;-0.41;74.66
73106;BME280;61559;50.476;15.588;2023-04-27T00:30:58;97797.14;;;-0.45;74.59
73106;BME280;61559;50.476;15.588;2023-04-27T00:33:32;97796.95;;;-0.50;74.74
73106;BME280;61559;50.476;15.588;2023-04-27T00:36:03;97797.87;;;-0.52;74.82
73106;BME280;61559;50.476;15.588;2023-04-27T00:38:35;97801.67;;;-0.55;74.88
73106;BME280;61559;50.476;15.588;2023-04-27T00:41:06;97800.58;;;-0.57;75.05
73106;BME280;61559;50.476;15.588;2023-04-27T00:43:44;97801.98;;;-0.60;74.99
73106;BME280;61559;50.476;15.588;2023-04-27T00:46:14;97805.07;;;-0.63;74.96
73106;BME280;61559;50.476;15.588;2023-04-27T00:48:47;97802.66;;;-0.68;75.28
73106;BME280;61559;50.476;15.588;2023-04-27T00:51:19;97804.79;;;-0.71;75.19
73106;BME280;61559;50.476;15.588;2023-04-27T00:53:52;97802.06;;;-0.73;75.29
73106;BME280;61559;50.476;15.588;2023-04-27T00:56:23;97805.88;;;-0.75;75.35
73106;BME280;61559;50.476;15.588;2023-04-27T00:58:54;97805.38;;;-0.77;75.31
73106;BME280;61559;50.476;15.588;2023-04-27T01:01:25;97806.09;;;-0.79;75.55
73106;BME280;61559;50.476;15.588;2023-04-27T01:03:55;97804.12;;;-0.82;75.54
73106;BME280;61559;50.476;15.588;2023-04-27T01:06:26;97804.86;;;-0.86;75.66
73106;BME280;61559;50.476;15.588;2023-04-27T01:08:56;97805.99;;;-0.89;75.60
73106;BME280;61559;50.476;15.588;2023-04-27T01:11:27;97809.52;;;-0.92;75.48
73106;BME280;61559;50.476;15.588;2023-04-27T01:14:03;97809.84;;;-0.94;75.61
73106;BME280;61559;50.476;15.588;2023-04-27T01:16:35;97809.41;;;-0.96;75.67
73106;BME280;61559;50.476;15.588;2023-04-27T01:19:08;97809.10;;;-0.98;75.65
73106;BME280;61559;50.476;15.588;2023-04-27T01:21:39;97811.48;;;-1.01;75.81
73106;BME280;61559;50.476;15.588;2023-04-27T01:24:10;97811.29;;;-1.03;75.90
73106;BME280;61559;50.476;15.588;2023-04-27T01:26:50;97813.38;;;-1.05;76.14
73106;BME280;61559;50.476;15.588;2023-04-27T01:29:22;97814.79;;;-1.05;76.21
73106;BME280;61559;50.476;15.588;2023-04-27T01:31:53;97816.66;;;-1.05;76.22
73106;BME280;61559;50.476;15.588;2023-04-27T01:34:25;97818.72;;;-1.06;76.13
73106;BME280;61559;50.476;15.588;2023-04-27T01:36:56;97821.29;;;-1.06;75.96
73106;BME280;61559;50.476;15.588;2023-04-27T01:39:27;97823.36;;;-1.06;76.13
73106;BME280;61559;50.476;15.588;2023-04-27T01:41:58;97828.76;;;-1.06;76.12
73106;BME280;61559;50.476;15.588;2023-04-27T01:44:31;97827.73;;;-1.07;76.16
73106;BME280;61559;50.476;15.588;2023-04-27T01:47:02;97825.04;;;-1.11;76.19
73106;BME280;61559;50.476;15.588;2023-04-27T01:49:33;97832.71;;;-1.14;76.29
73106;BME280;61559;50.476;15.588;2023-04-27T01:52:04;97830.10;;;-1.18;76.57
73106;BME280;61559;50.476;15.588;2023-04-27T01:54:34;97832.36;;;-1.21;76.69
73106;BME280;61559;50.476;15.588;2023-04-27T01:57:05;97830.34;;;-1.26;76.57
73106;BME280;61559;50.476;15.588;2023-04-27T01:59:36;97830.92;;;-1.29;76.78
73106;BME280;61559;50.476;15.588;2023-04-27T02:02:07;97833.50;;;-1.34;76.84
73106;BME280;61559;50.476;15.588;2023-04-27T02:04:39;97834.41;;;-1.42;76.71
73106;BME280;61559;50.476;15.588;2023-04-27T02:07:12;97835.48;;;-1.48;76.68
73106;BME280;61559;50.476;15.588;2023-04-27T02:09:43;97837.17;;;-1.54;76.85
73106;BME280;61559;50.476;15.588;2023-04-27T02:12:14;97840.16;;;-1.63;77.24
73106;BME280;61559;50.476;15.588;2023-04-27T02:14:46;97841.23;;;-1.72;77.24
73106;BME280;61559;50.476;15.588;2023-04-27T02:17:17;97844.08;;;-1.74;77.45
73106;BME280;61559;50.476;15.588;2023-04-27T02:19:48;97848.94;;;-1.72;77.41
73106;BME280;61559;50.476;15.588;2023-04-27T02:22:19;97850.67;;;-1.72;77.43
73106;BME280;61559;50.476;15.588;2023-04-27T02:24:50;97851.79;;;-1.71;77.57
73106;BME280;61559;50.476;15.588;2023-04-27T02:27:22;97857.39;;;-1.69;77.54
73106;BME280;61559;50.476;15.588;2023-04-27T02:29:52;97856.08;;;-1.67;77.51
73106;BME280;61559;50.476;15.588;2023-04-27T02:32:24;97852.80;;;-1.67;77.32
73106;BME280;61559;50.476;15.588;2023-04-27T02:34:56;97854.80;;;-1.65;77.53
73106;BME280;61559;50.476;15.588;2023-04-27T02:37:27;97853.02;;;-1.64;77.72
73106;BME280;61559;50.476;15.588;2023-04-27T02:39:58;97850.59;;;-1.66;77.61
73106;BME280;61559;50.476;15.588;2023-04-27T02:42:31;97854.35;;;-1.73;77.80
73106;BME280;61559;50.476;15.588;2023-04-27T02:45:03;97852.88;;;-1.82;78.07
73106;BME280;61559;50.476;15.588;2023-04-27T02:47:32;97847.34;;;-1.92;78.24
73106;BME280;61559;50.476;15.588;2023-04-27T02:50:05;97848.06;;;-2.01;78.50
73106;BME280;61559;50.476;15.588;2023-04-27T02:52:36;97852.77;;;-2.06;78.74
73106;BME280;61559;50.476;15.588;2023-04-27T02:55:08;97851.41;;;-2.09;78.87
73106;BME280;61559;50.476;15.588;2023-04-27T02:57:39;97847.20;;;-2.07;78.83
73106;BME280;61559;50.476;15.588;2023-04-27T03:00:12;97844.37;;;-2.05;78.91
73106;BME280;61559;50.476;15.588;2023-04-27T03:02:43;97844.86;;;-2.02;79.08
73106;BME280;61559;50.476;15.588;2023-04-27T03:05:13;97846.52;;;-1.97;78.90
73106;BME280;61559;50.476;15.588;2023-04-27T03:07:44;97844.34;;;-1.95;78.79
73106;BME280;61559;50.476;15.588;2023-04-27T03:10:15;97848.23;;;-1.91;78.67
73106;BME280;61559;50.476;15.588;2023-04-27T03:12:47;97844.66;;;-1.88;78.59
73106;BME280;61559;50.476;15.588;2023-04-27T03:15:18;97847.73;;;-1.86;78.68
73106;BME280;61559;50.476;15.588;2023-04-27T03:17:49;97847.83;;;-1.84;78.63
73106;BME280;61559;50.476;15.588;2023-04-27T03:20:21;97854.33;;;-1.83;78.53
73106;BME280;61559;50.476;15.588;2023-04-27T03:22:52;97850.73;;;-1.81;78.40
73106;BME280;61559;50.476;15.588;2023-04-27T03:25:24;97851.14;;;-1.81;78.41
73106;BME280;61559;50.476;15.588;2023-04-27T03:27:58;97855.30;;;-1.80;78.35
73106;BME280;61559;50.476;15.588;2023-04-27T03:30:29;97856.14;;;-1.79;78.46
73106;BME280;61559;50.476;15.588;2023-04-27T03:33:01;97859.39;;;-1.78;78.38
73106;BME280;61559;50.476;15.588;2023-04-27T03:35:32;97863.83;;;-1.76;78.30
73106;BME280;61559;50.476;15.588;2023-04-27T03:38:03;97862.76;;;-1.73;78.28
73106;BME280;61559;50.476;15.588;2023-04-27T03:40:35;97863.47;;;-1.73;78.29
73106;BME280;61559;50.476;15.588;2023-04-27T03:43:06;97861.41;;;-1.72;78.18
73106;BME280;61559;50.476;15.588;2023-04-27T03:45:37;97861.30;;;-1.79;78.40
73106;BME280;61559;50.476;15.588;2023-04-27T03:48:09;97865.39;;;-1.82;78.49
73106;BME280;61559;50.476;15.588;2023-04-27T03:50:40;97867.77;;;-1.82;78.65
73106;BME280;61559;50.476;15.588;2023-04-27T03:53:11;97869.84;;;-1.78;78.71
73106;BME280;61559;50.476;15.588;2023-04-27T03:55:43;97869.62;;;-1.74;78.68
73106;BME280;61559;50.476;15.588;2023-04-27T03:58:15;97874.73;;;-1.70;78.72
73106;BME280;61559;50.476;15.588;2023-04-27T04:00:47;97883.38;;;-1.66;78.71
73106;BME280;61559;50.476;15.588;2023-04-27T04:03:18;97889.88;;;-1.62;78.71
73106;BME280;61559;50.476;15.588;2023-04-27T04:05:50;97889.11;;;-1.58;78.81
73106;BME280;61559;50.476;15.588;2023-04-27T04:08:21;97886.23;;;-1.53;78.70
73106;BME280;61559;50.476;15.588;2023-04-27T04:10:52;97884.36;;;-1.49;78.63
73106;BME280;61559;50.476;15.588;2023-04-27T04:13:23;97886.55;;;-1.46;78.68
73106;BME280;61559;50.476;15.588;2023-04-27T04:16:05;97886.77;;;-1.45;78.51
73106;BME280;61559;50.476;15.588;2023-04-27T04:18:37;97888.73;;;-1.46;78.44
73106;BME280;61559;50.476;15.588;2023-04-27T04:21:09;97890.34;;;-1.42;78.41
73106;BME280;61559;50.476;15.588;2023-04-27T04:23:40;97896.59;;;-1.40;78.38
73106;BME280;61559;50.476;15.588;2023-04-27T04:26:11;97906.29;;;-1.36;78.53
73106;BME280;61559;50.476;15.588;2023-04-27T04:28:43;97907.30;;;-1.31;78.54
73106;BME280;61559;50.476;15.588;2023-04-27T04:31:17;97909.75;;;-1.24;78.46
73106;BME280;61559;50.476;15.588;2023-04-27T04:33:50;97913.30;;;-1.17;78.35
73106;BME280;61559;50.476;15.588;2023-04-27T04:36:21;97918.24;;;-1.11;78.32
73106;BME280;61559;50.476;15.588;2023-04-27T04:38:54;97920.13;;;-1.03;78.13
73106;BME280;61559;50.476;15.588;2023-04-27T04:41:25;97918.63;;;-0.95;78.09
73106;BME280;61559;50.476;15.588;2023-04-27T04:43:55;97923.02;;;-0.87;78.02
73106;BME280;61559;50.476;15.588;2023-04-27T04:46:27;97925.38;;;-0.80;77.85
73106;BME280;61559;50.476;15.588;2023-04-27T04:49:00;97928.45;;;-0.68;77.63
73106;BME280;61559;50.476;15.588;2023-04-27T04:51:31;97928.02;;;-0.53;77.55
73106;BME280;61559;50.476;15.588;2023-04-27T04:54:03;97928.86;;;-0.42;77.29
73106;BME280;61559;50.476;15.588;2023-04-27T04:56:34;97931.17;;;-0.26;77.08
73106;BME280;61559;50.476;15.588;2023-04-27T04:59:05;97934.99;;;-0.14;77.10
73106;BME280;61559;50.476;15.588;2023-04-27T05:01:36;97932.20;;;-0.03;76.95
73106;BME280;61559;50.476;15.588;2023-04-27T05:04:08;97934.59;;;0.09;76.80
73106;BME280;61559;50.476;15.588;2023-04-27T05:06:39;97937.55;;;0.19;76.59
73106;BME280;61559;50.476;15.588;2023-04-27T05:09:10;97938.23;;;0.29;76.48
73106;BME280;61559;50.476;15.588;2023-04-27T05:11:42;97932.65;;;0.38;76.25
73106;BME280;61559;50.476;15.588;2023-04-27T05:14:13;97932.85;;;0.48;76.41
73106;BME280;61559;50.476;15.588;2023-04-27T05:16:44;97936.13;;;0.60;76.32
73106;BME280;61559;50.476;15.588;2023-04-27T05:19:17;97936.19;;;0.71;76.04
73106;BME280;61559;50.476;15.588;2023-04-27T05:21:49;97931.42;;;0.81;76.03
73106;BME280;61559;50.476;15.588;2023-04-27T05:24:20;97934.02;;;0.91;75.80
73106;BME280;61559;50.476;15.588;2023-04-27T05:26:51;97930.19;;;1.00;75.81
73106;BME280;61559;50.476;15.588;2023-04-27T05:29:23;97932.13;;;1.08;75.67
73106;BME280;61559;50.476;15.588;2023-04-27T05:31:55;97930.72;;;1.17;75.65
73106;BME280;61559;50.476;15.588;2023-04-27T05:34:26;97931.60;;;1.27;75.49
73106;BME280;61559;50.476;15.588;2023-04-27T05:36:57;97928.61;;;1.37;75.47
73106;BME280;61559;50.476;15.588;2023-04-27T05:39:28;97930.21;;;1.47;75.44
73106;BME280;61559;50.476;15.588;2023-04-27T05:41:58;97932.02;;;1.57;75.36
73106;BME280;61559;50.476;15.588;2023-04-27T05:44:31;97930.95;;;1.63;75.65
73106;BME280;61559;50.476;15.588;2023-04-27T05:47:02;97932.46;;;1.72;75.98
73106;BME280;61559;50.476;15.588;2023-04-27T05:49:33;97934.93;;;1.82;76.07
73106;BME280;61559;50.476;15.588;2023-04-27T05:52:05;97935.65;;;1.92;76.02
73106;BME280;61559;50.476;15.588;2023-04-27T05:54:36;97933.87;;;2.03;76.19
73106;BME280;61559;50.476;15.588;2023-04-27T05:57:07;97936.23;;;2.15;76.01
73106;BME280;61559;50.476;15.588;2023-04-27T05:59:38;97934.77;;;2.29;75.88
73106;BME280;61559;50.476;15.588;2023-04-27T06:02:10;97931.27;;;2.41;75.88
73106;BME280;61559;50.476;15.588;2023-04-27T06:04:42;97928.23;;;2.56;75.68
73106;BME280;61559;50.476;15.588;2023-04-27T06:07:15;97932.38;;;2.71;75.61
73106;BME280;61559;50.476;15.588;2023-04-27T06:09:46;97934.14;;;2.86;75.66
73106;BME280;61559;50.476;15.588;2023-04-27T06:12:17;97933.48;;;3.00;75.79
73106;BME280;61559;50.476;15.588;2023-04-27T06:14:48;97927.31;;;3.18;75.44
73106;BME280;61559;50.476;15.588;2023-04-27T06:17:19;97927.40;;;3.39;75.54
73106;BME280;61559;50.476;15.588;2023-04-27T06:19:51;97930.05;;;3.60;75.25
73106;BME280;61559;50.476;15.588;2023-04-27T06:22:22;97929.09;;;3.81;74.66
73106;BME280;61559;50.476;15.588;2023-04-27T06:24:53;97929.34;;;4.03;74.42
73106;BME280;61559;50.476;15.588;2023-04-27T06:27:24;97928.30;;;4.26;74.23
73106;BME280;61559;50.476;15.588;2023-04-27T06:29:55;97929.04;;;4.50;73.49
73106;BME280;61559;50.476;15.588;2023-04-27T06:32:26;97931.16;;;4.74;73.12
73106;BME280;61559;50.476;15.588;2023-04-27T06:34:55;97938.27;;;4.99;71.39
73106;BME280;61559;50.476;15.588;2023-04-27T06:37:27;97935.91;;;5.19;70.04
73106;BME280;61559;50.476;15.588;2023-04-27T06:39:58;97934.23;;;5.40;69.43
73106;BME280;61559;50.476;15.588;2023-04-27T06:42:28;97931.65;;;5.61;69.39
73106;BME280;61559;50.476;15.588;2023-04-27T06:44:59;97927.38;;;5.78;68.94
73106;BME280;61559;50.476;15.588;2023-04-27T06:47:29;97927.39;;;5.99;68.90
73106;BME280;61559;50.476;15.588;2023-04-27T06:50:00;97927.23;;;6.17;67.47
73106;BME280;61559;50.476;15.588;2023-04-27T06:52:33;97926.88;;;6.34;66.37
73106;BME280;61559;50.476;15.588;2023-04-27T06:55:05;97925.34;;;6.52;65.75
73106;BME280;61559;50.476;15.588;2023-04-27T06:57:36;97922.00;;;6.73;65.37
73106;BME280;61559;50.476;15.588;2023-04-27T07:00:10;97926.16;;;6.91;64.30
73106;BME280;61559;50.476;15.588;2023-04-27T07:02:42;97925.05;;;7.04;62.25
73106;BME280;61559;50.476;15.588;2023-04-27T07:05:13;97926.67;;;7.14;61.62
73106;BME280;61559;50.476;15.588;2023-04-27T07:07:45;97925.99;;;7.25;61.64
73106;BME280;61559;50.476;15.588;2023-04-27T07:10:16;97929.30;;;7.36;61.06
73106;BME280;61559;50.476;15.588;2023-04-27T07:12:47;97926.79;;;7.45;59.12
73106;BME280;61559;50.476;15.588;2023-04-27T07:15:17;97924.66;;;7.52;58.47
73106;BME280;61559;50.476;15.588;2023-04-27T07:17:48;97924.74;;;7.57;58.16
73106;BME280;61559;50.476;15.588;2023-04-27T07:20:17;97920.21;;;7.63;56.98
73106;BME280;61559;50.476;15.588;2023-04-27T07:22:49;97920.03;;;7.65;56.71
73106;BME280;61559;50.476;15.588;2023-04-27T07:25:20;97920.69;;;7.74;56.23
73106;BME280;61559;50.476;15.588;2023-04-27T07:27:51;97921.19;;;7.79;54.38
73106;BME280;61559;50.476;15.588;2023-04-27T07:30:23;97924.77;;;7.84;54.40
73106;BME280;61559;50.476;15.588;2023-04-27T07:32:55;97921.14;;;7.91;54.61
73106;BME280;61559;50.476;15.588;2023-04-27T07:35:26;97925.59;;;8.03;54.67
73106;BME280;61559;50.476;15.588;2023-04-27T07:37:58;97924.48;;;8.13;53.53
73106;BME280;61559;50.476;15.588;2023-04-27T07:40:30;97925.52;;;8.15;52.95
73106;BME280;61559;50.476;15.588;2023-04-27T07:43:03;97926.64;;;8.23;53.26
73106;BME280;61559;50.476;15.588;2023-04-27T07:45:34;97920.55;;;8.29;52.15
73106;BME280;61559;50.476;15.588;2023-04-27T07:48:07;97921.48;;;8.33;52.24
73106;BME280;61559;50.476;15.588;2023-04-27T07:50:39;97921.70;;;8.35;50.79
73106;BME280;61559;50.476;15.588;2023-04-27T07:53:10;97918.67;;;8.32;51.18
73106;BME280;61559;50.476;15.588;2023-04-27T07:55:41;97928.61;;;8.36;51.12
73106;BME280;61559;50.476;15.588;2023-04-27T07:58:13;97931.40;;;8.39;50.85
73106;BME280;61559;50.476;15.588;2023-04-27T08:00:44;97933.17;;;8.44;50.82
73106;BME280;61559;50.476;15.588;2023-04-27T08:03:16;97933.77;;;8.52;50.95
73106;BME280;61559;50.476;15.588;2023-04-27T08:05:47;97934.11;;;8.62;50.02
73106;BME280;61559;50.476;15.588;2023-04-27T08:08:19;97934.33;;;8.58;48.39
73106;BME280;61559;50.476;15.588;2023-04-27T08:10:51;97938.30;;;8.57;48.17
73106;BME280;61559;50.476;15.588;2023-04-27T08:13:22;97938.23;;;8.59;48.99
73106;BME280;61559;50.476;15.588;2023-04-27T08:15:54;97938.83;;;8.67;48.53
73106;BME280;61559;50.476;15.588;2023-04-27T08:18:27;97941.46;;;8.72;46.83
73106;BME280;61559;50.476;15.588;2023-04-27T08:20:58;97944.17;;;8.76;47.57
73106;BME280;61559;50.476;15.588;2023-04-27T08:23:30;97941.84;;;8.77;47.08
73106;BME280;61559;50.476;15.588;2023-04-27T08:26:05;97936.42;;;8.79;47.86
73106;BME280;61559;50.476;15.588;2023-04-27T08:28:36;97940.17;;;8.82;47.48
73106;BME280;61559;50.476;15.588;2023-04-27T08:31:07;97941.07;;;8.77;45.66
73106;BME280;61559;50.476;15.588;2023-04-27T08:33:39;97937.27;;;8.65;45.93
73106;BME280;61559;50.476;15.588;2023-04-27T08:36:11;97935.26;;;8.58;47.36
73106;BME280;61559;50.476;15.588;2023-04-27T08:38:42;97935.83;;;8.61;47.98
73106;BME280;61559;50.476;15.588;2023-04-27T08:41:18;97941.07;;;8.66;46.73
73106;BME280;61559;50.476;15.588;2023-04-27T08:43:51;97937.17;;;8.63;46.26
73106;BME280;61559;50.476;15.588;2023-04-27T08:46:24;97943.64;;;8.57;46.11
73106;BME280;61559;50.476;15.588;2023-04-27T08:48:56;97945.17;;;8.47;46.00
73106;BME280;61559;50.476;15.588;2023-04-27T08:51:25;97949.00;;;8.39;45.62
73106;BME280;61559;50.476;15.588;2023-04-27T08:53:57;97946.83;;;8.33;46.26
73106;BME280;61559;50.476;15.588;2023-04-27T08:56:29;97945.67;;;8.35;46.69
73106;BME280;61559;50.476;15.588;2023-04-27T08:59:01;97944.90;;;8.39;46.68
73106;BME280;61559;50.476;15.588;2023-04-27T09:01:34;97948.73;;;8.40;46.69
73106;BME280;61559;50.476;15.588;2023-04-27T09:04:05;97947.56;;;8.39;46.64
73106;BME280;61559;50.476;15.588;2023-04-27T09:06:37;97947.27;;;8.38;47.14
73106;BME280;61559;50.476;15.588;2023-04-27T09:09:08;97948.24;;;8.38;46.97
73106;BME280;61559;50.476;15.588;2023-04-27T09:11:40;97948.44;;;8.39;46.88
73106;BME280;61559;50.476;15.588;2023-04-27T09:14:19;97950.02;;;8.42;47.33
73106;BME280;61559;50.476;15.588;2023-04-27T09:16:55;97949.81;;;8.46;47.84
73106;BME280;61559;50.476;15.588;2023-04-27T09:19:28;97950.77;;;8.50;47.61
73106;BME280;61559;50.476;15.588;2023-04-27T09:22:08;97948.85;;;8.56;47.95
73106;BME280;61559;50.476;15.588;2023-04-27T09:24:48;97949.33;;;8.61;47.98
73106;BME280;61559;50.476;15.588;2023-04-27T09:27:21;97952.52;;;8.66;47.94
73106;BME280;61559;50.476;15.588;2023-04-27T09:29:52;97949.84;;;8.69;47.79
73106;BME280;61559;50.476;15.588;2023-04-27T09:32:24;97944.79;;;8.65;47.82
73106;BME280;61559;50.476;15.588;2023-04-27T09:34:55;97948.20;;;8.66;47.83
73106;BME280;61559;50.476;15.588;2023-04-27T09:37:27;97945.41;;;8.67;47.86
73106;BME280;61559;50.476;15.588;2023-04-27T09:39:59;97946.25;;;8.66;47.57
73106;BME280;61559;50.476;15.588;2023-04-27T09:42:32;97944.97;;;8.64;47.90
73106;BME280;61559;50.476;15.588;2023-04-27T09:45:04;97945.73;;;8.60;47.31
73106;BME280;61559;50.476;15.588;2023-04-27T09:47:36;97947.66;;;8.56;47.52
73106;BME280;61559;50.476;15.588;2023-04-27T09:50:10;97950.91;;;8.51;47.99
73106;BME280;61559;50.476;15.588;2023-04-27T09:52:42;97952.38;;;8.53;48.68
73106;BME280;61559;50.476;15.588;2023-04-27T09:55:17;97945.90;;;8.61;47.93
73106;BME280;61559;50.476;15.588;2023-04-27T09:57:54;97941.73;;;8.69;48.19
73106;BME280;61559;50.476;15.588;2023-04-27T10:00:40;97938.44;;;8.84;48.43
73106;BME280;61559;50.476;15.588;2023-04-27T10:03:25;97925.80;;;9.04;49.23
73106;BME280;61559;50.476;15.588;2023-04-27T10:09:03;97915.71;;;9.66;47.95
73106;BME280;61559;50.476;15.588;2023-04-27T10:11:38;97917.81;;;9.86;45.11
73106;BME280;61559;50.476;15.588;2023-04-27T10:14:15;97918.83;;;9.87;42.29
73106;BME280;61559;50.476;15.588;2023-04-27T10:16:49;97916.02;;;9.83;43.43
73106;BME280;61559;50.476;15.588;2023-04-27T10:19:20;97919.06;;;9.85;43.44
73106;BME280;61559;50.476;15.588;2023-04-27T10:21:56;97924.66;;;9.86;43.29
73106;BME280;61559;50.476;15.588;2023-04-27T10:24:39;97933.23;;;9.87;44.02
73106;BME280;61559;50.476;15.588;2023-04-27T10:27:14;97928.27;;;9.86;42.42
73106;BME280;61559;50.476;15.588;2023-04-27T10:29:47;97929.10;;;9.85;42.83
73106;BME280;61559;50.476;15.588;2023-04-27T10:32:24;97926.98;;;9.83;41.95
73106;BME280;61559;50.476;15.588;2023-04-27T10:35:07;97930.05;;;9.69;41.61
73106;BME280;61559;50.476;15.588;2023-04-27T10:37:41;97937.33;;;9.52;41.96
73106;BME280;61559;50.476;15.588;2023-04-27T10:40:14;97936.45;;;9.39;41.92
73106;BME280;61559;50.476;15.588;2023-04-27T10:42:47;97930.23;;;9.34;43.23
73106;BME280;61559;50.476;15.588;2023-04-27T10:45:28;97929.60;;;9.39;43.16
73106;BME280;61559;50.476;15.588;2023-04-27T10:48:01;97925.32;;;9.46;42.65
73106;BME280;61559;50.476;15.588;2023-04-27T10:50:33;97920.23;;;9.51;42.79
73106;BME280;61559;50.476;15.588;2023-04-27T10:53:06;97926.83;;;9.54;42.77
73106;BME280;61559;50.476;15.588;2023-04-27T10:55:37;97930.04;;;9.58;42.40
73106;BME280;61559;50.476;15.588;2023-04-27T10:58:08;97921.85;;;9.63;43.17
73106;BME280;61559;50.476;15.588;2023-04-27T11:00:41;97915.92;;;9.71;41.75
73106;BME280;61559;50.476;15.588;2023-04-27T11:03:15;97914.77;;;9.82;42.54
73106;BME280;61559;50.476;15.588;2023-04-27T11:05:49;97917.62;;;9.95;42.18
73106;BME280;61559;50.476;15.588;2023-04-27T11:08:29;97918.68;;;10.15;43.42
73106;BME280;61559;50.476;15.588;2023-04-27T11:11:01;97914.83;;;10.33;42.29
73106;BME280;61559;50.476;15.588;2023-04-27T11:13:34;97914.17;;;10.46;41.04
73106;BME280;61559;50.476;15.588;2023-04-27T11:16:06;97916.13;;;10.48;40.58
73106;BME280;61559;50.476;15.588;2023-04-27T11:18:38;97916.77;;;10.49;40.33
73106;BME280;61559;50.476;15.588;2023-04-27T11:21:10;97914.23;;;10.48;39.35
73106;BME280;61559;50.476;15.588;2023-04-27T11:23:42;97911.78;;;10.49;39.30
73106;BME280;61559;50.476;15.588;2023-04-27T11:26:14;97911.31;;;10.60;40.45
73106;BME280;61559;50.476;15.588;2023-04-27T11:28:58;97908.22;;;10.71;40.74
73106;BME280;61559;50.476;15.588;2023-04-27T11:31:39;97911.02;;;10.88;41.06
73106;BME280;61559;50.476;15.588;2023-04-27T11:34:16;97914.33;;;11.04;40.68
73106;BME280;61559;50.476;15.588;2023-04-27T11:36:58;97911.06;;;11.16;39.90
73106;BME280;61559;50.476;15.588;2023-04-27T11:39:35;97914.58;;;11.14;38.81
73106;BME280;61559;50.476;15.588;2023-04-27T11:42:17;97913.14;;;11.08;39.37
73106;BME280;61559;50.476;15.588;2023-04-27T11:44:57;97910.93;;;11.05;39.46
73106;BME280;61559;50.476;15.588;2023-04-27T11:47:29;97911.77;;;11.03;39.18
73106;BME280;61559;50.476;15.588;2023-04-27T11:50:03;97914.99;;;11.04;39.50
73106;BME280;61559;50.476;15.588;2023-04-27T11:52:36;97915.91;;;11.08;40.17
73106;BME280;61559;50.476;15.588;2023-04-27T11:55:09;97916.27;;;11.14;39.74
73106;BME280;61559;50.476;15.588;2023-04-27T11:57:45;97918.77;;;11.07;37.82
73106;BME280;61559;50.476;15.588;2023-04-27T12:00:17;97922.05;;;10.94;37.66
73106;BME280;61559;50.476;15.588;2023-04-27T12:02:48;97922.58;;;10.83;38.35
73106;BME280;61559;50.476;15.588;2023-04-27T12:05:21;97919.21;;;10.82;39.31
73106;BME280;61559;50.476;15.588;2023-04-27T12:07:52;97922.50;;;10.85;39.51
73106;BME280;61559;50.476;15.588;2023-04-27T12:10:23;97923.11;;;10.81;38.22
73106;BME280;61559;50.476;15.588;2023-04-27T12:12:55;97927.08;;;10.74;38.92
73106;BME280;61559;50.476;15.588;2023-04-27T12:15:26;97920.84;;;10.75;39.78
73106;BME280;61559;50.476;15.588;2023-04-27T12:17:57;97919.43;;;10.78;38.70
73106;BME280;61559;50.476;15.588;2023-04-27T12:20:28;97922.41;;;10.80;39.10
73106;BME280;61559;50.476;15.588;2023-04-27T12:22:59;97923.26;;;10.86;39.37
73106;BME280;61559;50.476;15.588;2023-04-27T12:25:30;97919.48;;;10.90;39.82
73106;BME280;61559;50.476;15.588;2023-04-27T12:28:01;97919.36;;;10.98;40.58
73106;BME280;61559;50.476;15.588;2023-04-27T12:30:32;97916.38;;;11.08;40.10
73106;BME280;61559;50.476;15.588;2023-04-27T12:33:04;97916.02;;;11.11;38.94
73106;BME280;61559;50.476;15.588;2023-04-27T12:35:39;97914.63;;;11.15;39.29
73106;BME280;61559;50.476;15.588;2023-04-27T12:38:10;97912.79;;;11.13;38.77
73106;BME280;61559;50.476;15.588;2023-04-27T12:40:41;97918.60;;;11.04;38.15
73106;BME280;61559;50.476;15.588;2023-04-27T12:43:13;97916.44;;;11.00;38.93
73106;BME280;61559;50.476;15.588;2023-04-27T12:45:44;97922.09;;;11.04;38.90
73106;BME280;61559;50.476;15.588;2023-04-27T12:48:15;97917.69;;;11.13;39.42
73106;BME280;61559;50.476;15.588;2023-04-27T12:50:46;97912.11;;;11.21;39.65
73106;BME280;61559;50.476;15.588;2023-04-27T12:53:18;97914.86;;;11.22;38.76
73106;BME280;61559;50.476;15.588;2023-04-27T12:55:50;97914.17;;;11.23;39.91
73106;BME280;61559;50.476;15.588;2023-04-27T12:58:22;97915.69;;;11.31;39.92
73106;BME280;61559;50.476;15.588;2023-04-27T13:00:55;97916.55;;;11.37;39.65
73106;BME280;61559;50.476;15.588;2023-04-27T13:03:27;97917.29;;;11.42;39.38
73106;BME280;61559;50.476;15.588;2023-04-27T13:06:00;97916.41;;;11.47;39.49
73106;BME280;61559;50.476;15.588;2023-04-27T13:08:31;97909.11;;;11.54;39.95
73106;BME280;61559;50.476;15.588;2023-04-27T13:11:02;97909.91;;;11.65;40.29
73106;BME280;61559;50.476;15.588;2023-04-27T13:13:33;97904.55;;;11.72;38.38
73106;BME280;61559;50.476;15.588;2023-04-27T13:16:05;97904.48;;;11.71;38.41
73106;BME280;61559;50.476;15.588;2023-04-27T13:18:36;97900.52;;;11.73;37.90
73106;BME280;61559;50.476;15.588;2023-04-27T13:21:08;97901.48;;;11.81;38.41
73106;BME280;61559;50.476;15.588;2023-04-27T13:23:40;97900.94;;;11.91;38.35